Симферополь

Карта отелей и гостиниц, располагающихся рядом с аэропортом Симферополь :

Симферополь Автономная Республика Крым 45° 3' 7.38" N, 33° 58' 25.7412" E
Код аэродрома ИКАО
URFF
Код аэродрома RU
УРФФ
Координаты
N45.05205° E033.97382°
Превышение над уровнем моря
183
Основная полоса
01/19
Курс магнитный
006,8/186,8
Длина основной ВПП
3701
Ширина основной ВПП
60
Покрытие основной ВПП
Твёрдое (асфальтобетон)
Освещение ВПП
Постоянное
Тип: 
Аэродром
Класс аэродрома: 
Международный
Принадлежность: 
ГА
Статус: 
Действующий
Сайт: 
http://sipaero.ru/
E-mail аэродрома: 
office@airport.crimea.ua
Страна: 
Россия
Регион: 
Автономная Республика Крым
Дополнительная информация: 
Оператор: АО «Международный аэропорт «Симферополь».
Погода: 

Авиационная погода в Симферополе

Погода METAR: 
URFF 271500Z 25006MPS 9999 FEW015 SCT049 08/05 Q1016 R19/110095 NOSIG
Время наблюдения
2021-02-27T15:00:00Z
Температура C
8.0
Точка росы
5.0
Направление ветра
250
Скорость ветра (узлы)
12
Метео видимость
6.21
Явления погоды
Условия полета
VFR
Аэропорт подробнее: 

Найти трансфер

С помощью этой формы Вы можете найти трансфер из аэропорта Симферополь в город, аэропорт или вокзал:

Карта места

Javascript is required to view this map.

Погода в аэропортах:

Авиационная погода в Емельяново

Регион: 
Погода METAR: 
UNKL 271500Z 24003MPS 5000 -SN SCT015 M20/M24 Q1030 R29/450245 NOSIG RMK QFE747
Время наблюдения
2021-02-27T15:00:00Z
Температура C
-20.0
Точка росы
-24.0
Направление ветра
240
Скорость ветра (узлы)
6
Метео видимость
3.11
Явления погоды
-SN
Условия полета
MVFR
Аэропорт подробнее: 

Авиационная погода в Ботсфьорде

Регион: 
Погода METAR: 
ENBS 262050Z 34022KT 9999 DRSN BKN018 M01/M04 Q1006
Время наблюдения
2021-02-26T20:50:00Z
Температура C
-1.0
Точка росы
-4.0
Направление ветра
340
Скорость ветра (узлы)
22
Метео видимость
6.21
Явления погоды
DRSN
Условия полета
MVFR

Авиационная погода в Алматы

Регион: 
Погода METAR: 
UAAA 271500Z 15001MPS 1800 R23R/P2000U R23L/P2000 BR FU SCT050 BKN100 M05/M09 Q1029 R88/65D TEMPO 1500 FU
Время наблюдения
2021-02-27T15:00:00Z
Температура C
-5.0
Точка росы
-9.0
Направление ветра
150
Скорость ветра (узлы)
2
Метео видимость
1.12
Явления погоды
FU BR
Условия полета
IFR
Аэропорт подробнее: 

Авиационная погода в Уральске

Регион: 
Погода METAR: 
UARR 271500Z 23006MPS 0400 R22/1100D FG VV002 00/00 Q1001 R22/590145 NOSIG RMK QBB070 QFE747/0997
Время наблюдения
2021-02-27T15:00:00Z
Температура C
0.0
Точка росы
0.0
Направление ветра
230
Скорость ветра (узлы)
12
Метео видимость
0.25
Явления погоды
FG
Условия полета
LIFR
Аэропорт подробнее: